Time;durP1;ratioP1;P1;durP2;ratioP2;P2;SDS_P1;SDS_P2;PMS_P1;PMS_P2;Temp;Humidity;BMP_temperature;BMP_pressure;BME280_temperature;BME280_humidity;BME280_pressure;Samples;Min_cycle;Max_cycle;Signal;HPM_P1;HPM_P2
2021/09/14 00:01:53;;;;;;;11.07;6.03;;;12.50;97.70;;;;;;5110271;28;20491;-76
2021/09/14 00:04:19;;;;;;;8.63;5.20;;;12.50;97.80;;;;;;5112038;28;20332;-76
2021/09/14 00:06:44;;;;;;;8.83;5.30;;;12.50;98.20;;;;;;5111423;28;20054;-76
2021/09/14 00:09:11;;;;;;;8.97;5.30;;;12.50;97.70;;;;;;5110529;28;20160;-75
2021/09/14 00:11:39;;;;;;;8.50;5.53;;;12.40;97.70;;;;;;5112406;28;20169;-75
2021/09/14 00:14:05;;;;;;;8.50;5.53;;;12.40;97.70;;;;;;5112695;28;20043;-75
2021/09/14 00:16:31;;;;;;;8.13;5.40;;;12.40;97.70;;;;;;5111558;28;20119;-75
2021/09/14 00:18:56;;;;;;;9.30;5.40;;;12.40;97.70;;;;;;5112307;28;20384;-75
2021/09/14 00:21:22;;;;;;;8.30;5.87;;;12.40;97.70;;;;;;5110784;28;20515;-75
2021/09/14 00:23:48;;;;;;;8.20;5.27;;;12.30;97.70;;;;;;5110110;28;20047;-75
2021/09/14 00:26:13;;;;;;;10.80;5.90;;;12.30;97.70;;;;;;5112232;28;20042;-75
2021/09/14 00:28:39;;;;;;;8.27;5.37;;;12.30;98.10;;;;;;5111137;28;20055;-75
2021/09/14 00:31:04;;;;;;;7.80;5.43;;;12.30;97.70;;;;;;5110114;28;20035;-75
2021/09/14 00:33:30;;;;;;;7.90;5.23;;;12.30;97.70;;;;;;5110832;28;20043;-75
2021/09/14 00:35:55;;;;;;;8.60;5.33;;;12.30;97.70;;;;;;5110961;28;20122;-75
2021/09/14 00:38:22;;;;;;;7.37;4.43;;;12.30;97.70;;;;;;5110928;28;20051;-76
2021/09/14 00:40:47;;;;;;;10.00;5.53;;;12.30;97.70;;;;;;5112139;28;20078;-75
2021/09/14 00:43:21;;;;;;;8.90;5.20;;;12.30;97.70;;;;;;5111700;28;20086;-75
2021/09/14 00:45:47;;;;;;;9.73;5.53;;;12.30;97.70;;;;;;5113500;28;20168;-75
2021/09/14 00:48:12;;;;;;;7.00;4.57;;;12.20;97.70;;;;;;5114742;28;20047;-75
2021/09/14 00:50:38;;;;;;;7.43;5.33;;;12.20;97.70;;;;;;5114496;28;20047;-75
2021/09/14 00:53:04;;;;;;;9.27;4.80;;;12.10;97.70;;;;;;5114722;28;20116;-75
2021/09/14 00:55:29;;;;;;;8.50;5.03;;;12.10;97.70;;;;;;5114787;28;20047;-75
2021/09/14 00:57:55;;;;;;;7.87;4.60;;;12.10;97.70;;;;;;5114189;28;20043;-76
2021/09/14 01:00:21;;;;;;;6.87;4.57;;;12.10;97.70;;;;;;5114446;28;20047;-75
2021/09/14 01:02:47;;;;;;;10.50;4.30;;;12.10;97.70;;;;;;5113922;28;20043;-75
2021/09/14 01:05:13;;;;;;;5.97;5.03;;;12.10;97.70;;;;;;5113165;28;20122;-75
2021/09/14 01:07:40;;;;;;;8.20;5.00;;;12.10;97.80;;;;;;5115139;28;20249;-75
2021/09/14 01:10:07;;;;;;;7.37;5.03;;;12.20;97.90;;;;;;5115109;28;20059;-75
2021/09/14 01:12:33;;;;;;;7.03;4.70;;;12.20;97.90;;;;;;5113060;28;20046;-75
2021/09/14 01:14:59;;;;;;;7.83;4.93;;;12.20;98.00;;;;;;5113771;28;20043;-75
2021/09/14 01:17:25;;;;;;;6.67;4.43;;;12.20;98.00;;;;;;5114732;28;20080;-75
2021/09/14 01:19:51;;;;;;;8.70;4.73;;;12.30;98.00;;;;;;5114073;28;20135;-75
2021/09/14 01:22:16;;;;;;;9.03;5.17;;;12.30;98.10;;;;;;5114198;28;20146;-75
2021/09/14 01:24:43;;;;;;;10.30;5.17;;;12.40;98.10;;;;;;5113480;28;20176;-75
2021/09/14 01:27:08;;;;;;;8.87;5.13;;;12.40;98.00;;;;;;5113760;28;20104;-75
2021/09/14 01:32:18;;;;;;;9.13;4.80;;;12.50;98.00;;;;;;5113348;28;20441;-75
2021/09/14 01:34:43;;;;;;;7.23;3.93;;;12.50;98.00;;;;;;5114106;28;20043;-75
2021/09/14 01:37:09;;;;;;;6.97;4.73;;;12.50;98.00;;;;;;5114369;28;20055;-75
2021/09/14 01:39:34;;;;;;;6.90;4.60;;;12.50;98.00;;;;;;5113321;28;20044;-75
2021/09/14 01:42:00;;;;;;;7.03;4.90;;;12.50;98.40;;;;;;5114032;28;20104;-75
2021/09/14 01:44:25;;;;;;;7.87;4.73;;;12.50;98.00;;;;;;5114082;28;20499;-75
2021/09/14 01:46:52;;;;;;;7.70;4.73;;;12.60;98.00;;;;;;5113434;28;20078;-75
2021/09/14 01:49:18;;;;;;;10.83;4.90;;;12.60;97.90;;;;;;5112321;28;20060;-75
2021/09/14 01:51:44;;;;;;;8.17;4.83;;;12.70;97.80;;;;;;5114544;28;20047;-75
2021/09/14 01:54:09;;;;;;;8.40;4.43;;;12.70;97.80;;;;;;5114036;28;20036;-75
2021/09/14 01:56:36;;;;;;;8.73;4.40;;;12.80;98.20;;;;;;5112131;28;20153;-75
2021/09/14 01:59:01;;;;;;;7.67;4.57;;;12.80;97.80;;;;;;5114259;28;20043;-75
2021/09/14 02:01:40;;;;;;;14.87;5.67;;;12.80;97.80;;;;;;5113280;28;20054;-75
2021/09/14 02:04:16;;;;;;;10.20;4.53;;;12.90;97.80;;;;;;5112871;28;20161;-75
2021/09/14 02:06:56;;;;;;;7.73;4.80;;;12.90;97.80;;;;;;5113021;28;20043;-75
2021/09/14 02:42:32;;;;;;;6.17;4.60;;;13.20;97.50;;;;;;5112755;28;20376;-75
2021/09/14 02:56:20;;;;;;;9.80;5.00;;;13.30;97.70;;;;;;5110395;28;20180;-75
2021/09/14 02:58:46;;;;;;;12.50;5.50;;;13.30;97.70;;;;;;5111877;28;20111;-75
2021/09/14 03:01:14;;;;;;;12.63;5.80;;;13.30;97.70;;;;;;5111131;28;20047;-75
2021/09/14 03:03:43;;;;;;;11.73;5.70;;;13.30;97.60;;;;;;5112827;28;20291;-75
2021/09/14 03:06:09;;;;;;;9.10;5.50;;;13.40;97.60;;;;;;5110202;28;20038;-75
2021/09/14 03:08:39;;;;;;;8.23;5.33;;;13.40;97.60;;;;;;5110935;28;20043;-74
2021/09/14 03:11:13;;;;;;;12.33;7.27;;;13.40;97.70;;;;;;5110288;28;20107;-75
2021/09/14 03:13:41;;;;;;;12.27;5.83;;;13.40;97.70;;;;;;5110876;28;20101;-75
2021/09/14 03:16:09;;;;;;;9.17;5.30;;;13.40;97.70;;;;;;5112320;28;20042;-73
2021/09/14 03:18:35;;;;;;;10.00;6.37;;;13.40;97.70;;;;;;5112228;28;20044;-73
2021/09/14 03:21:02;;;;;;;14.30;6.67;;;13.40;97.70;;;;;;5110380;28;20155;-74
2021/09/14 03:23:27;;;;;;;8.20;5.13;;;13.40;97.70;;;;;;5112743;28;20067;-73
2021/09/14 03:25:53;;;;;;;10.07;5.57;;;13.50;97.70;;;;;;5110755;28;20040;-74
2021/09/14 03:28:19;;;;;;;11.93;6.37;;;13.50;97.70;;;;;;5110955;28;20075;-76
2021/09/14 03:30:45;;;;;;;12.43;6.17;;;13.50;97.70;;;;;;5111315;28;20043;-75
2021/09/14 03:33:10;;;;;;;11.93;6.00;;;13.50;97.80;;;;;;5110498;28;20720;-74
2021/09/14 03:35:37;;;;;;;9.30;6.00;;;13.50;97.80;;;;;;5112605;28;20088;-75
2021/09/14 03:38:03;;;;;;;12.30;6.03;;;13.40;97.80;;;;;;5112638;28;20395;-75
2021/09/14 03:40:28;;;;;;;10.67;6.27;;;13.50;97.90;;;;;;5111641;28;20065;-74
2021/09/14 03:42:54;;;;;;;14.67;6.23;;;13.40;98.00;;;;;;5112481;28;20039;-75
2021/09/14 03:45:20;;;;;;;10.00;5.90;;;13.40;98.10;;;;;;5112320;28;20403;-75
2021/09/14 03:47:45;;;;;;;11.27;6.60;;;13.40;98.20;;;;;;5111531;28;20051;-75
2021/09/14 03:50:11;;;;;;;14.00;6.40;;;13.40;98.30;;;;;;5110821;28;20126;-75
2021/09/14 03:52:37;;;;;;;11.10;7.30;;;13.40;98.40;;;;;;5112353;28;20040;-75
2021/09/14 03:55:04;;;;;;;11.33;6.73;;;13.40;98.30;;;;;;5110783;28;20054;-75
2021/09/14 03:57:29;;;;;;;12.30;7.23;;;13.40;98.30;;;;;;5145374;27;20044;-75
2021/09/14 03:59:55;;;;;;;16.03;8.53;;;13.40;98.30;;;;;;5111559;28;20135;-75
2021/09/14 04:02:37;;;;;;;16.73;10.63;;;13.40;98.20;;;;;;5111292;28;20055;-74
2021/09/14 04:08:49;;;;;;;16.00;8.20;;;13.40;98.00;;;;;;5082434;28;19961;-74
2021/09/14 04:10:39;;;;;;;14.23;8.10;;;13.30;98.00;;;;;;5110352;28;20058;-74
2021/09/14 04:13:05;;;;;;;14.63;8.37;;;13.30;98.00;;;;;;5110934;28;20127;-75
2021/09/14 04:15:31;;;;;;;10.93;7.13;;;13.20;98.10;;;;;;5111968;28;20571;-74
2021/09/14 04:17:57;;;;;;;13.43;7.40;;;13.20;98.10;;;;;;5112225;28;20126;-74
2021/09/14 04:20:23;;;;;;;13.90;6.97;;;13.20;98.20;;;;;;5112613;28;20050;-74
2021/09/14 04:22:48;;;;;;;10.27;6.60;;;13.20;98.20;;;;;;5113867;28;20384;-74
2021/09/14 04:25:14;;;;;;;12.10;7.30;;;13.10;98.20;;;;;;5114296;28;20422;-75
2021/09/14 04:27:39;;;;;;;12.43;6.27;;;13.10;98.20;;;;;;5115987;28;20069;-75
2021/09/14 04:30:06;;;;;;;13.20;7.07;;;13.00;98.20;;;;;;5113873;28;20070;-75
2021/09/14 04:32:32;;;;;;;10.97;6.10;;;13.00;98.30;;;;;;5116170;28;20445;-75
2021/09/14 04:34:58;;;;;;;9.40;6.37;;;13.00;98.40;;;;;;5115908;28;20071;-75
2021/09/14 04:37:24;;;;;;;12.20;6.23;;;12.90;98.50;;;;;;5114798;28;20480;-75
2021/09/14 04:39:50;;;;;;;10.80;6.53;;;12.90;98.50;;;;;;5114810;28;20079;-75
2021/09/14 04:42:16;;;;;;;12.73;6.87;;;12.90;98.50;;;;;;5115071;27;20067;-74
2021/09/14 04:44:41;;;;;;;11.60;6.97;;;12.90;98.50;;;;;;5113469;28;20075;-74
2021/09/14 04:47:07;;;;;;;9.90;6.67;;;12.90;98.50;;;;;;5115223;28;20039;-74
2021/09/14 04:49:33;;;;;;;11.03;6.83;;;12.90;98.50;;;;;;5114596;28;20157;-74
2021/09/14 04:51:58;;;;;;;13.57;8.03;;;12.80;98.50;;;;;;5113483;28;20055;-74
2021/09/14 04:54:24;;;;;;;12.83;6.73;;;12.80;98.60;;;;;;5115062;28;20042;-74
2021/09/14 04:56:50;;;;;;;13.67;7.53;;;12.70;98.60;;;;;;5115129;27;20462;-75
2021/09/14 04:59:15;;;;;;;10.57;7.27;;;12.70;98.80;;;;;;5114416;28;20062;-74
2021/09/14 05:01:42;;;;;;;12.00;7.00;;;12.70;98.80;;;;;;5116093;28;20036;-74
2021/09/14 05:04:08;;;;;;;12.80;6.67;;;12.70;98.80;;;;;;5114488;28;20054;-75
2021/09/14 05:06:34;;;;;;;11.73;7.87;;;12.70;98.80;;;;;;5115090;28;20532;-75
2021/09/14 05:08:59;;;;;;;8.53;6.47;;;12.60;98.80;;;;;;5114890;28;20120;-75
2021/09/14 05:11:25;;;;;;;11.73;6.90;;;12.60;98.90;;;;;;5113051;28;20036;-75
2021/09/14 05:13:50;;;;;;;14.87;7.57;;;12.60;98.80;;;;;;5114897;28;20043;-75
2021/09/14 05:16:16;;;;;;;11.53;6.97;;;12.60;98.80;;;;;;5114830;28;20333;-74
2021/09/14 05:18:46;;;;;;;12.17;6.83;;;12.60;98.80;;;;;;5113892;28;20149;-74
2021/09/14 05:21:11;;;;;;;10.73;6.60;;;12.60;98.80;;;;;;5113242;28;20466;-74
2021/09/14 05:23:37;;;;;;;10.97;7.13;;;12.60;98.90;;;;;;5114925;28;20127;-75
2021/09/14 05:26:04;;;;;;;11.13;7.03;;;12.60;98.90;;;;;;5113709;28;20040;-75
2021/09/14 05:28:30;;;;;;;13.97;6.97;;;12.50;98.90;;;;;;5148007;27;20043;-74
2021/09/14 05:30:57;;;;;;;12.43;6.90;;;12.50;98.90;;;;;;5114011;28;20055;-75
2021/09/14 05:33:23;;;;;;;11.93;6.87;;;12.50;99.00;;;;;;5114209;28;20031;-74
2021/09/14 05:35:51;;;;;;;10.00;6.87;;;12.50;99.00;;;;;;5113199;28;20044;-74
2021/09/14 05:38:19;;;;;;;12.57;7.53;;;12.50;99.00;;;;;;5113424;28;20348;-75
2021/09/14 05:40:46;;;;;;;9.60;7.20;;;12.60;99.00;;;;;;5113588;28;20062;-75
2021/09/14 05:43:11;;;;;;;12.53;7.10;;;12.50;99.00;;;;;;5112880;28;20475;-75
2021/09/14 05:45:37;;;;;;;10.80;7.30;;;12.50;99.00;;;;;;5114234;28;20126;-75
2021/09/14 05:48:03;;;;;;;15.00;6.97;;;12.50;99.10;;;;;;5111518;28;20074;-75
2021/09/14 05:50:28;;;;;;;12.00;7.10;;;12.50;99.20;;;;;;5113572;28;20126;-74
2021/09/14 05:52:55;;;;;;;13.07;7.00;;;12.50;99.20;;;;;;5111508;28;20075;-74
2021/09/14 05:55:20;;;;;;;17.13;8.03;;;12.50;99.20;;;;;;5112616;28;20055;-74
2021/09/14 05:57:46;;;;;;;14.43;7.67;;;12.60;99.20;;;;;;5113018;28;20108;-74
2021/09/14 06:00:13;;;;;;;11.60;6.50;;;12.60;99.20;;;;;;5114349;28;20201;-74
2021/09/14 06:02:39;;;;;;;12.17;7.40;;;12.60;99.20;;;;;;5113007;28;20433;-75
2021/09/14 06:05:06;;;;;;;10.40;7.20;;;12.70;99.20;;;;;;5112973;28;20050;-74
2021/09/14 06:07:31;;;;;;;11.70;7.83;;;12.70;99.20;;;;;;5114006;28;20556;-74
2021/09/14 06:09:57;;;;;;;11.90;7.37;;;12.70;99.20;;;;;;5137958;27;20040;-74
2021/09/14 06:12:24;;;;;;;12.57;7.70;;;12.70;99.30;;;;;;5111273;28;20116;-74
2021/09/14 06:14:50;;;;;;;11.17;7.53;;;12.70;99.30;;;;;;5112831;28;20051;-74
2021/09/14 06:17:16;;;;;;;11.90;7.47;;;12.70;99.30;;;;;;5113653;28;20040;-74
2021/09/14 06:19:42;;;;;;;13.77;7.63;;;12.80;99.20;;;;;;5113498;28;20039;-73
2021/09/14 06:22:08;;;;;;;11.53;7.90;;;12.90;99.20;;;;;;5112062;28;20107;-75
2021/09/14 06:24:34;;;;;;;15.03;8.30;;;12.90;99.10;;;;;;5113834;28;20114;-75
2021/09/14 06:27:00;;;;;;;12.27;8.57;;;12.90;99.20;;;;;;5112180;28;20051;-75
2021/09/14 06:29:25;;;;;;;16.97;9.37;;;13.00;99.20;;;;;;5111601;28;20047;-75
2021/09/14 06:31:51;;;;;;;12.27;8.90;;;13.00;99.10;;;;;;5111802;28;20065;-74
2021/09/14 06:34:16;;;;;;;13.10;8.07;;;13.00;99.10;;;;;;5113519;28;20040;-75
2021/09/14 06:36:42;;;;;;;13.37;9.50;;;13.10;99.00;;;;;;5112320;28;20044;-75
2021/09/14 06:39:07;;;;;;;16.97;10.23;;;13.10;98.90;;;;;;5111961;28;20043;-76
2021/09/14 06:41:33;;;;;;;15.47;9.87;;;13.20;98.90;;;;;;5112133;28;20047;-76
2021/09/14 06:43:59;;;;;;;18.03;9.93;;;13.20;98.80;;;;;;5111625;28;20133;-76
2021/09/14 06:46:25;;;;;;;18.03;10.53;;;13.30;98.80;;;;;;5113314;28;20036;-75
2021/09/14 06:48:51;;;;;;;14.97;10.17;;;13.30;98.80;;;;;;5111469;28;20051;-76
2021/09/14 06:51:18;;;;;;;13.97;9.60;;;13.40;98.70;;;;;;5111844;28;20063;-76
2021/09/14 06:53:43;;;;;;;16.97;11.00;;;13.40;98.70;;;;;;5113105;28;20067;-76
2021/09/14 06:56:09;;;;;;;16.17;11.30;;;13.50;98.70;;;;;;5113169;28;20038;-75
2021/09/14 06:58:35;;;;;;;19.83;13.47;;;13.50;98.70;;;;;;5145084;27;20096;-73
2021/09/14 07:01:02;;;;;;;18.00;12.30;;;13.50;98.70;;;;;;5112342;28;20504;-74
2021/09/14 07:03:27;;;;;;;18.07;12.47;;;13.60;99.00;;;;;;5145871;27;20054;-74
2021/09/14 07:05:53;;;;;;;20.27;14.40;;;13.60;98.60;;;;;;5111535;28;20040;-75
2021/09/14 07:08:19;;;;;;;19.67;14.23;;;13.70;98.60;;;;;;5112993;28;20043;-75
2021/09/14 07:10:44;;;;;;;18.47;13.37;;;13.70;98.50;;;;;;5112207;28;20044;-75
2021/09/14 07:13:10;;;;;;;18.67;14.20;;;13.80;98.40;;;;;;5145231;27;20082;-74
2021/09/14 07:15:36;;;;;;;22.40;14.80;;;13.90;98.40;;;;;;5145682;27;20044;-74
2021/09/14 07:18:02;;;;;;;19.73;14.73;;;13.90;98.40;;;;;;5111894;28;20047;-74
2021/09/14 07:20:28;;;;;;;18.63;15.60;;;14.00;98.40;;;;;;5145286;27;20480;-74
2021/09/14 07:22:53;;;;;;;22.60;14.33;;;14.10;98.40;;;;;;5112129;28;20073;-75
2021/09/14 07:25:19;;;;;;;20.63;15.37;;;14.10;98.40;;;;;;5111972;28;20043;-74
2021/09/14 07:27:45;;;;;;;21.13;14.90;;;14.10;98.40;;;;;;5145135;27;20478;-74
2021/09/14 07:30:11;;;;;;;21.53;15.10;;;14.20;98.30;;;;;;5112818;28;20104;-75
2021/09/14 07:32:36;;;;;;;21.37;16.80;;;14.20;98.30;;;;;;5111643;28;20040;-74
2021/09/14 07:35:06;;;;;;;23.77;16.13;;;14.30;98.20;;;;;;5112437;28;20039;-74
2021/09/14 07:37:31;;;;;;;20.63;15.53;;;14.40;98.20;;;;;;5112960;28;20138;-66
2021/09/14 13:07:42;;;;;;;12.38;9.20;;;22.10;81.30;;;;;;5108914;27;20330;-79
2021/09/14 13:10:09;;;;;;;10.20;8.53;;;22.10;84.50;;;;;;5071416;28;20131;-78
2021/09/14 13:12:36;;;;;;;11.75;9.45;;;22.10;83.70;;;;;;5073027;28;20040;-81
2021/09/14 13:17:46;;;;;;;11.50;10.18;;;22.20;82.10;;;;;;5088366;28;20468;-81
2021/09/14 13:20:12;;;;;;;13.38;10.38;;;22.20;81.60;;;;;;5071098;28;20040;-78
2021/09/14 13:22:37;;;;;;;15.27;11.07;;;22.20;80.70;;;;;;5089209;28;20109;-70
2021/09/14 13:25:03;;;;;;;12.15;10.68;;;22.20;80.00;;;;;;5087872;28;20044;-72
2021/09/14 13:27:29;;;;;;;13.02;10.73;;;22.20;79.70;;;;;;5088236;28;20170;-72
2021/09/14 13:29:54;;;;;;;13.13;10.45;;;22.20;79.60;;;;;;5086748;28;20119;-74
2021/09/14 13:32:20;;;;;;;13.05;11.15;;;22.20;79.40;;;;;;5069423;28;20480;-80
2021/09/14 13:34:47;;;;;;;12.13;10.52;;;22.30;78.80;;;;;;5089251;28;20040;-83
2021/09/14 13:37:13;;;;;;;10.52;9.23;;;22.30;78.20;;;;;;5089056;28;20044;-72
2021/09/14 13:39:39;;;;;;;10.18;8.77;;;22.20;78.30;;;;;;5087596;28;20488;-72
2021/09/14 13:42:06;;;;;;;16.27;9.82;;;22.30;78.20;;;;;;5087793;28;20089;-77
2021/09/14 13:47:09;;;;;;;11.38;10.07;;;22.40;78.10;;;;;;5087660;28;20049;-74
2021/09/14 13:49:35;;;;;;;13.32;12.13;;;22.40;77.50;;;;;;5071156;28;20443;-75
2021/09/14 13:52:01;;;;;;;12.15;10.00;;;22.30;76.90;;;;;;5052860;28;20040;-77
2021/09/14 13:54:26;;;;;;;12.82;11.52;;;22.20;76.80;;;;;;5089039;28;20036;-72
2021/09/14 13:56:52;;;;;;;11.55;9.02;;;22.10;76.60;;;;;;5054034;28;20048;-73
2021/09/14 13:59:17;;;;;;;13.77;10.23;;;22.00;77.50;;;;;;5088395;28;20051;-75
2021/09/14 14:01:43;;;;;;;13.25;11.38;;;21.90;78.00;;;;;;5088467;28;20201;-73
2021/09/14 14:04:09;;;;;;;10.77;9.43;;;21.80;78.00;;;;;;5070322;28;20040;-73
2021/09/14 14:06:34;;;;;;;13.18;10.90;;;21.80;78.30;;;;;;5087278;28;20051;-74
2021/09/14 14:09:00;;;;;;;13.20;9.68;;;21.80;78.60;;;;;;5088776;28;20140;-78
2021/09/14 14:14:34;;;;;;;12.80;11.05;;;21.80;78.50;;;;;;5106782;27;20387;-76
2021/09/14 14:17:00;;;;;;;13.70;10.27;;;21.80;79.40;;;;;;5102749;28;20062;-75
2021/09/14 14:19:25;;;;;;;12.93;11.63;;;21.90;79.30;;;;;;5101840;28;20051;-76
2021/09/14 14:21:51;;;;;;;12.05;10.85;;;22.00;78.30;;;;;;5101555;28;20392;-75
2021/09/14 14:24:19;;;;;;;10.68;9.57;;;22.00;77.80;;;;;;5103582;28;20042;-74
2021/09/14 14:26:45;;;;;;;12.60;9.35;;;22.00;78.10;;;;;;5107919;28;20060;-76
2021/09/14 14:29:12;;;;;;;11.32;10.10;;;22.00;78.50;;;;;;5110544;28;20396;-78
2021/09/14 14:31:40;;;;;;;13.18;10.40;;;22.00;78.90;;;;;;5108880;28;20085;-72
2021/09/14 14:34:05;;;;;;;13.30;11.52;;;22.00;79.20;;;;;;5109325;28;20073;-72
2021/09/14 14:36:31;;;;;;;12.77;10.85;;;22.00;78.40;;;;;;5108198;28;20047;-71
2021/09/14 14:38:56;;;;;;;12.55;10.30;;;22.00;78.40;;;;;;5109509;28;20047;-72
2021/09/14 14:41:22;;;;;;;14.55;11.05;;;22.00;78.40;;;;;;5108920;28;20507;-72
2021/09/14 14:43:47;;;;;;;13.27;10.85;;;22.00;77.60;;;;;;5109311;28;20077;-72
2021/09/14 14:46:13;;;;;;;12.23;10.77;;;22.00;76.80;;;;;;5108708;28;20048;-70
2021/09/14 14:48:39;;;;;;;13.18;10.52;;;22.10;77.00;;;;;;5108078;28;20043;-72
2021/09/14 14:51:04;;;;;;;12.40;10.32;;;22.10;76.50;;;;;;5109365;28;20035;-70
2021/09/14 14:53:30;;;;;;;12.55;10.10;;;22.10;76.20;;;;;;5107724;28;20039;-71
2021/09/14 14:55:55;;;;;;;10.68;9.38;;;22.20;76.50;;;;;;5108849;28;20123;-70
2021/09/14 14:58:21;;;;;;;11.93;10.75;;;22.20;76.80;;;;;;5108697;28;20042;-71
2021/09/14 16:24:52;;;;;;;13.70;10.43;;;20.50;82.20;;;;;;5166052;27;20336;-75
2021/09/14 16:27:21;;;;;;;12.20;9.70;;;20.50;81.60;;;;;;5171660;27;20068;-74
2021/09/14 16:29:50;;;;;;;11.83;9.63;;;20.50;82.90;;;;;;5171714;27;20035;-77
2021/09/14 16:32:16;;;;;;;9.77;8.70;;;20.40;83.80;;;;;;5172283;27;20450;-77
2021/09/14 16:34:42;;;;;;;11.97;10.17;;;20.40;84.60;;;;;;5170741;27;20079;-77
2021/09/14 16:37:07;;;;;;;13.17;11.10;;;20.40;85.20;;;;;;5153828;27;20046;-75
2021/09/14 16:39:33;;;;;;;12.50;11.03;;;20.30;85.70;;;;;;5172025;27;20035;-73
2021/09/14 16:41:58;;;;;;;12.07;10.90;;;20.30;86.20;;;;;;5170731;27;20123;-74
2021/09/14 16:44:24;;;;;;;11.83;10.60;;;20.30;86.60;;;;;;5172020;27;20167;-74
2021/09/14 16:46:51;;;;;;;11.83;10.73;;;20.20;86.90;;;;;;5153427;27;20046;-75
2021/09/14 16:49:17;;;;;;;12.33;11.10;;;20.20;87.30;;;;;;5155387;27;20051;-72
2021/09/14 16:51:43;;;;;;;13.15;11.75;;;20.20;87.40;;;;;;5150313;27;20041;-71
2021/09/14 16:54:10;;;;;;;14.37;11.80;;;20.10;87.70;;;;;;5150080;27;20078;-72
2021/09/14 16:56:44;;;;;;;14.00;11.77;;;20.10;88.20;;;;;;5131602;27;20390;-72
2021/09/14 16:59:10;;;;;;;11.63;10.53;;;20.10;88.30;;;;;;5131701;27;20483;-72
2021/09/14 17:01:35;;;;;;;12.55;11.18;;;20.00;89.50;;;;;;5150198;27;20053;-71
2021/09/14 17:04:02;;;;;;;12.07;10.87;;;19.90;88.50;;;;;;5130713;27;20119;-72
2021/09/14 17:06:28;;;;;;;10.50;9.50;;;20.00;88.50;;;;;;5131299;27;20563;-73
2021/09/14 17:08:53;;;;;;;12.73;11.43;;;19.90;88.60;;;;;;5130390;27;20058;-72
2021/09/14 17:11:19;;;;;;;13.33;10.67;;;19.90;88.60;;;;;;5130616;27;20043;-73
2021/09/14 17:13:45;;;;;;;10.40;9.40;;;19.90;89.20;;;;;;5130963;27;20072;-72
2021/09/14 17:16:13;;;;;;;11.47;9.70;;;19.90;89.90;;;;;;5149057;27;20041;-71
2021/09/14 17:18:39;;;;;;;14.00;10.50;;;19.80;90.20;;;;;;5149881;27;20046;-73
2021/09/14 17:21:05;;;;;;;11.77;10.03;;;19.80;90.20;;;;;;5150090;27;20083;-72
2021/09/14 17:23:32;;;;;;;15.38;13.77;;;19.80;90.30;;;;;;5148972;27;20059;-71
2021/09/14 17:25:57;;;;;;;13.27;11.97;;;19.70;90.10;;;;;;5149689;27;20609;-72
2021/09/14 17:28:27;;;;;;;14.93;13.13;;;19.80;90.00;;;;;;5149499;27;20147;-72
2021/09/14 17:30:53;;;;;;;13.40;12.17;;;19.70;90.00;;;;;;5149277;27;20039;-71
2021/09/14 18:07:28;;;;;;;15.20;13.63;;;19.10;90.50;;;;;;5062139;27;1865617;-75
2021/09/14 18:09:55;;;;;;;16.33;14.67;;;19.00;88.30;;;;;;5092608;28;20064;-76
2021/09/14 18:12:21;;;;;;;19.83;17.73;;;19.00;89.80;;;;;;5108317;28;20055;-74
2021/09/14 18:14:46;;;;;;;18.83;16.93;;;19.00;90.50;;;;;;5090900;28;20048;-76
2021/09/14 18:17:12;;;;;;;18.93;17.07;;;19.00;91.00;;;;;;5108716;28;20075;-74
2021/09/14 18:19:38;;;;;;;18.40;16.50;;;19.00;91.40;;;;;;5090011;28;20396;-79
2021/09/14 18:22:04;;;;;;;17.07;15.53;;;19.00;91.70;;;;;;5090234;28;20476;-78
2021/09/14 18:24:30;;;;;;;16.40;14.90;;;18.90;92.10;;;;;;5109066;28;20040;-78
2021/09/14 18:26:56;;;;;;;17.43;15.87;;;18.80;92.40;;;;;;5091849;28;20404;-81
2021/09/14 18:29:21;;;;;;;18.67;16.87;;;18.80;92.60;;;;;;5108825;28;20075;-74
2021/09/14 18:31:47;;;;;;;19.03;17.03;;;18.80;92.60;;;;;;5108401;28;20051;-72
2021/09/14 18:34:13;;;;;;;18.70;17.07;;;18.80;92.70;;;;;;5089364;28;20050;-73
2021/09/14 18:36:44;;;;;;;17.20;15.60;;;18.90;92.80;;;;;;5108542;28;20035;-72
2021/09/14 18:39:10;;;;;;;18.23;16.47;;;18.80;92.90;;;;;;5107738;28;20488;-74
2021/09/14 18:41:36;;;;;;;18.93;16.80;;;18.90;93.10;;;;;;5108949;28;20055;-74
2021/09/14 18:44:02;;;;;;;18.10;16.47;;;18.90;93.00;;;;;;5108374;28;20138;-76
2021/09/14 18:46:29;;;;;;;16.80;15.07;;;18.90;93.00;;;;;;5089938;28;20055;-74
2021/09/14 18:48:54;;;;;;;18.50;15.83;;;18.90;93.10;;;;;;5107126;28;20048;-73
2021/09/14 18:51:20;;;;;;;17.60;15.97;;;18.90;93.40;;;;;;5089447;28;20051;-71
2021/09/14 18:53:46;;;;;;;16.80;15.10;;;18.90;93.40;;;;;;5107879;28;20074;-74
2021/09/14 18:56:12;;;;;;;18.33;16.73;;;18.90;93.50;;;;;;5107582;28;20044;-73
